createdAt,value
2019-01-25T00:00:11.676Z,1009.68
2019-01-25T00:01:11.686Z,1009.67
2019-01-25T00:02:11.696Z,1009.68
2019-01-25T00:03:11.705Z,1009.69
2019-01-25T00:04:11.715Z,1009.64
2019-01-25T00:05:11.726Z,1009.61
2019-01-25T00:06:11.735Z,1009.65
2019-01-25T00:07:11.745Z,1009.65
2019-01-25T00:09:11.764Z,1009.67
2019-01-25T00:10:11.774Z,1009.67
2019-01-25T00:11:11.786Z,1009.69
2019-01-25T00:12:11.794Z,1009.67
2019-01-25T00:13:11.803Z,1009.68
2019-01-25T00:14:11.813Z,1009.69
2019-01-25T00:15:11.823Z,1009.73
2019-01-25T00:16:11.833Z,1009.69
2019-01-25T00:17:11.910Z,1009.68
2019-01-25T00:18:11.860Z,1009.7
2019-01-25T00:19:11.862Z,1009.72
2019-01-25T00:20:11.933Z,1009.72
2019-01-25T00:21:11.882Z,1009.67
2019-01-25T00:22:11.893Z,1009.69
2019-01-25T00:24:11.914Z,1009.69
2019-01-25T00:25:11.922Z,1009.68
2019-01-25T00:26:11.934Z,1009.71
2019-01-25T00:27:11.942Z,1009.71
2019-01-25T00:28:11.952Z,1009.67
2019-01-25T00:29:11.961Z,1009.68
2019-01-25T00:30:11.977Z,1009.69
2019-01-25T00:31:11.981Z,1009.7
2019-01-25T00:32:11.990Z,1009.73
2019-01-25T00:33:12.000Z,1009.71
2019-01-25T00:34:12.010Z,1009.72
2019-01-25T00:35:12.021Z,1009.76
2019-01-25T00:36:12.039Z,1009.76
2019-01-25T00:37:12.040Z,1009.8
2019-01-25T00:38:12.051Z,1009.76
2019-01-25T00:39:12.060Z,1009.77
2019-01-25T00:40:12.069Z,1009.74
2019-01-25T00:41:12.079Z,1009.74
2019-01-25T00:42:12.089Z,1009.74
2019-01-25T00:43:12.099Z,1009.75
2019-01-25T00:44:12.108Z,1009.75
2019-01-25T00:45:12.119Z,1009.73
2019-01-25T00:46:12.129Z,1009.74
2019-01-25T00:47:12.137Z,1009.78
2019-01-25T00:48:12.148Z,1009.76
2019-01-25T00:49:12.158Z,1009.74
2019-01-25T00:50:12.168Z,1009.78
2019-01-25T00:51:12.177Z,1009.77
2019-01-25T00:52:12.187Z,1009.73
2019-01-25T00:53:12.197Z,1009.75
2019-01-25T00:54:12.207Z,1009.73
2019-01-25T00:56:12.226Z,1009.69
2019-01-25T00:57:12.236Z,1009.71
2019-01-25T00:58:12.246Z,1009.69
2019-01-25T00:59:12.255Z,1009.73
2019-01-25T01:00:12.265Z,1009.72
2019-01-25T01:01:12.275Z,1009.67
2019-01-25T01:02:12.284Z,1009.7
2019-01-25T01:03:12.295Z,1009.72
2019-01-25T01:04:12.304Z,1009.7
2019-01-25T01:05:12.313Z,1009.69
2019-01-25T01:06:12.324Z,1009.71
2019-01-25T01:07:12.334Z,1009.73
2019-01-25T01:08:12.344Z,1009.72
2019-01-25T01:09:12.353Z,1009.76
2019-01-25T01:10:14.081Z,1009.76
2019-01-25T01:12:12.383Z,1009.76
2019-01-25T01:13:12.392Z,1009.76
2019-01-25T01:14:12.402Z,1009.78
2019-01-25T01:15:12.413Z,1009.73
2019-01-25T01:16:12.422Z,1009.74
2019-01-25T01:17:12.433Z,1009.78
2019-01-25T01:18:12.450Z,1009.78
2019-01-25T01:19:12.452Z,1009.8
2019-01-25T01:20:12.461Z,1009.78
2019-01-25T01:21:12.471Z,1009.8
2019-01-25T01:22:12.482Z,1009.84
2019-01-25T01:23:12.492Z,1009.82
2019-01-25T01:24:12.502Z,1009.86
2019-01-25T01:25:12.516Z,1009.81
2019-01-25T01:26:12.523Z,1009.8
2019-01-25T01:28:12.541Z,1009.85
2019-01-25T01:29:12.552Z,1009.87
2019-01-25T01:30:12.571Z,1009.9
2019-01-25T01:31:12.570Z,1009.9
2019-01-25T01:32:12.580Z,1009.84
2019-01-25T01:33:12.592Z,1009.86
2019-01-25T01:34:12.600Z,1009.81
2019-01-25T01:35:12.610Z,1009.83
2019-01-25T01:36:12.619Z,1009.79
2019-01-25T01:37:12.630Z,1009.83
2019-01-25T01:38:12.640Z,1009.85
2019-01-25T01:39:12.651Z,1009.88
2019-01-25T01:40:12.659Z,1009.85
2019-01-25T01:41:12.668Z,1009.84
2019-01-25T01:42:12.677Z,1009.84
2019-01-25T01:44:12.697Z,1009.88
2019-01-25T01:45:12.765Z,1009.88
2019-01-25T01:46:12.717Z,1009.85
2019-01-25T01:47:12.727Z,1009.86
2019-01-25T01:48:12.741Z,1009.9
2019-01-25T01:49:12.747Z,1009.91
2019-01-25T01:50:12.757Z,1009.94
2019-01-25T01:51:12.767Z,1009.91
2019-01-25T01:52:12.777Z,1009.94
2019-01-25T01:53:12.789Z,1009.94
2019-01-25T01:54:12.796Z,1009.91
2019-01-25T01:55:12.808Z,1009.91
2019-01-25T01:56:12.816Z,1009.93
2019-01-25T01:57:12.826Z,1009.89
2019-01-25T01:59:12.847Z,1009.91
2019-01-25T02:00:12.856Z,1009.95
2019-01-25T02:01:12.866Z,1009.88
2019-01-25T02:02:12.877Z,1009.88
2019-01-25T02:03:12.887Z,1009.91
2019-01-25T02:04:12.896Z,1009.88
2019-01-25T02:05:12.906Z,1009.91
2019-01-25T02:06:12.917Z,1009.9
2019-01-25T02:07:12.925Z,1009.88
2019-01-25T02:08:12.935Z,1009.87
2019-01-25T02:09:12.946Z,1009.86
2019-01-25T02:10:12.965Z,1009.85
2019-01-25T02:11:12.964Z,1009.9
2019-01-25T02:12:12.975Z,1009.86
2019-01-25T02:13:12.985Z,1009.84
2019-01-25T02:14:12.996Z,1009.88
2019-01-25T02:15:13.005Z,1009.84
2019-01-25T02:16:13.015Z,1009.84
2019-01-25T02:17:13.025Z,1009.85
2019-01-25T02:18:13.034Z,1009.8
2019-01-25T02:19:13.044Z,1009.82
2019-01-25T02:20:13.054Z,1009.83
2019-01-25T02:21:13.064Z,1009.81
2019-01-25T02:22:13.073Z,1009.8
2019-01-25T02:23:13.084Z,1009.78
2019-01-25T02:24:13.094Z,1009.82
2019-01-25T02:25:13.104Z,1009.82
2019-01-25T02:26:13.114Z,1009.77
2019-01-25T02:27:13.124Z,1009.79
2019-01-25T02:28:13.136Z,1009.8
2019-01-25T02:29:13.174Z,1009.75
2019-01-25T02:31:13.164Z,1009.75
2019-01-25T02:32:13.176Z,1009.76
2019-01-25T02:33:13.184Z,1009.74
2019-01-25T02:34:13.192Z,1009.73
2019-01-25T02:35:13.203Z,1009.74
2019-01-25T02:36:13.214Z,1009.73
2019-01-25T02:37:13.222Z,1009.7
2019-01-25T02:38:13.239Z,1009.73
2019-01-25T02:39:13.243Z,1009.7
2019-01-25T02:40:13.352Z,1009.7
2019-01-25T02:41:13.264Z,1009.72
2019-01-25T02:42:13.274Z,1009.74
2019-01-25T02:43:13.283Z,1009.68
2019-01-25T02:44:13.293Z,1009.69
2019-01-25T02:45:13.302Z,1009.67
2019-01-25T02:47:13.322Z,1009.65
2019-01-25T02:48:13.331Z,1009.66
2019-01-25T02:49:13.345Z,1009.66
2019-01-25T02:50:13.352Z,1009.65
2019-01-25T02:51:13.360Z,1009.65
2019-01-25T02:52:13.371Z,1009.66
2019-01-25T02:53:13.381Z,1009.62
2019-01-25T02:54:13.391Z,1009.64
2019-01-25T02:55:13.400Z,1009.66
2019-01-25T02:56:13.412Z,1009.67
2019-01-25T02:57:13.422Z,1009.69
2019-01-25T02:58:13.431Z,1009.66
2019-01-25T02:59:13.441Z,1009.65
2019-01-25T03:00:13.452Z,1009.64
2019-01-25T03:01:13.459Z,1009.62
2019-01-25T03:03:13.479Z,1009.64
2019-01-25T03:04:13.490Z,1009.68
2019-01-25T03:05:13.501Z,1009.66
2019-01-25T03:06:13.509Z,1009.64
2019-01-25T03:07:13.519Z,1009.67
2019-01-25T03:08:13.596Z,1009.66
2019-01-25T03:09:13.539Z,1009.67
2019-01-25T03:10:13.549Z,1009.66
2019-01-25T03:11:13.558Z,1009.66
2019-01-25T03:12:13.568Z,1009.65
2019-01-25T03:13:13.578Z,1009.64
2019-01-25T03:14:13.589Z,1009.64
2019-01-25T03:15:13.600Z,1009.65
2019-01-25T03:16:13.609Z,1009.65
2019-01-25T03:17:13.619Z,1009.62
2019-01-25T03:19:13.637Z,1009.57
2019-01-25T03:20:13.653Z,1009.61
2019-01-25T03:21:13.659Z,1009.59
2019-01-25T03:22:13.666Z,1009.59
2019-01-25T03:23:13.676Z,1009.57
2019-01-25T03:24:13.692Z,1009.6
2019-01-25T03:25:13.696Z,1009.56
2019-01-25T03:26:13.706Z,1009.56
2019-01-25T03:27:13.716Z,1009.58
2019-01-25T03:28:13.725Z,1009.58
2019-01-25T03:29:13.735Z,1009.61
2019-01-25T03:30:13.746Z,1009.62
2019-01-25T03:31:13.757Z,1009.62
2019-01-25T03:32:13.767Z,1009.62
2019-01-25T03:34:13.786Z,1009.61
2019-01-25T03:35:13.794Z,1009.64
2019-01-25T03:36:13.804Z,1009.61
2019-01-25T03:37:13.815Z,1009.65
2019-01-25T03:38:13.825Z,1009.67
2019-01-25T03:39:13.834Z,1009.68
2019-01-25T03:40:13.845Z,1009.7
2019-01-25T03:41:13.854Z,1009.73
2019-01-25T03:42:13.863Z,1009.68
2019-01-25T03:43:13.876Z,1009.72
2019-01-25T03:44:13.883Z,1009.74
2019-01-25T03:45:13.894Z,1009.69
2019-01-25T03:46:13.902Z,1009.73
2019-01-25T03:47:13.916Z,1009.74
2019-01-25T03:48:13.922Z,1009.72
2019-01-25T03:49:13.933Z,1009.77
2019-01-25T03:50:13.943Z,1009.72
2019-01-25T03:51:13.952Z,1009.77
2019-01-25T03:52:14.003Z,1009.76
2019-01-25T03:53:13.972Z,1009.78
2019-01-25T03:54:13.981Z,1009.79
2019-01-25T03:55:13.992Z,1009.78
2019-01-25T03:56:14.002Z,1009.76
2019-01-25T03:57:14.011Z,1009.75
2019-01-25T03:58:14.021Z,1009.73
2019-01-25T03:59:14.030Z,1009.76
2019-01-25T04:00:14.041Z,1009.78
2019-01-25T04:01:14.050Z,1009.78
2019-01-25T04:02:14.059Z,1009.71
2019-01-25T04:03:14.071Z,1009.75
2019-01-25T04:04:14.080Z,1009.76
2019-01-25T04:06:14.099Z,1009.76
2019-01-25T04:07:14.111Z,1009.77
2019-01-25T04:08:14.168Z,1009.79
2019-01-25T04:09:14.178Z,1009.76
2019-01-25T04:10:14.140Z,1009.79
2019-01-25T04:11:14.149Z,1009.79
2019-01-25T04:12:14.159Z,1009.83
2019-01-25T04:13:14.168Z,1009.81
2019-01-25T04:14:14.178Z,1009.79
2019-01-25T04:15:14.188Z,1009.79
2019-01-25T04:16:14.197Z,1009.8
2019-01-25T04:17:14.218Z,1009.74
2019-01-25T04:18:14.223Z,1009.75
2019-01-25T04:19:14.227Z,1009.76
2019-01-25T04:20:14.238Z,1009.79
2019-01-25T04:22:14.259Z,1009.77
2019-01-25T04:23:14.270Z,1009.75
2019-01-25T04:24:14.280Z,1009.78
2019-01-25T04:25:14.287Z,1009.77
2019-01-25T04:26:14.297Z,1009.75
2019-01-25T04:27:14.307Z,1009.78
2019-01-25T04:28:14.317Z,1009.8
2019-01-25T04:29:14.327Z,1009.79
2019-01-25T04:30:14.337Z,1009.75
2019-01-25T04:31:14.350Z,1009.77
2019-01-25T04:32:14.358Z,1009.77
2019-01-25T04:33:14.374Z,1009.8
2019-01-25T04:34:14.376Z,1009.77
2019-01-25T04:35:14.386Z,1009.78
2019-01-25T04:36:14.399Z,1009.79
2019-01-25T04:38:14.416Z,1009.78
2019-01-25T04:39:14.426Z,1009.8
2019-01-25T04:40:14.439Z,1009.8
2019-01-25T04:41:14.457Z,1009.78
2019-01-25T04:42:14.456Z,1009.77
2019-01-25T04:43:14.466Z,1009.75
2019-01-25T04:44:14.475Z,1009.76
2019-01-25T04:45:14.485Z,1009.77
2019-01-25T04:46:14.498Z,1009.77
2019-01-25T04:47:14.505Z,1009.75
2019-01-25T04:48:14.514Z,1009.76
2019-01-25T04:49:14.528Z,1009.76
2019-01-25T04:50:14.540Z,1009.79
2019-01-25T04:51:14.545Z,1009.8
2019-01-25T04:52:14.556Z,1009.79
2019-01-25T04:54:14.575Z,1009.81
2019-01-25T04:55:14.589Z,1009.78
2019-01-25T04:56:14.595Z,1009.78
2019-01-25T04:57:14.604Z,1009.79
2019-01-25T04:58:14.663Z,1009.78
2019-01-25T04:59:14.625Z,1009.81
2019-01-25T05:00:14.635Z,1009.81
2019-01-25T05:01:14.646Z,1009.82
2019-01-25T05:02:14.655Z,1009.81
2019-01-25T05:03:14.664Z,1009.82
2019-01-25T05:04:14.674Z,1009.82
2019-01-25T05:05:14.686Z,1009.81
2019-01-25T05:06:14.694Z,1009.79
2019-01-25T05:07:14.705Z,1009.75
2019-01-25T05:09:14.727Z,1009.83
2019-01-25T05:10:14.742Z,1009.83
2019-01-25T05:11:19.689Z,1009.8
2019-01-25T05:12:14.757Z,1009.82
2019-01-25T05:13:14.767Z,1009.8
2019-01-25T05:14:14.789Z,1009.8
2019-01-25T05:15:14.787Z,1009.79
2019-01-25T05:16:14.798Z,1009.78
2019-01-25T05:17:14.805Z,1009.8
2019-01-25T05:18:14.818Z,1009.84
2019-01-25T05:19:14.826Z,1009.83
2019-01-25T05:20:14.836Z,1009.84
2019-01-25T05:21:14.846Z,1009.86
2019-01-25T05:22:14.856Z,1009.86
2019-01-25T05:23:14.867Z,1009.86
2019-01-25T05:24:14.877Z,1009.86
2019-01-25T05:25:14.935Z,1009.85
2019-01-25T05:26:14.898Z,1009.82
2019-01-25T05:27:14.906Z,1009.83
2019-01-25T05:28:14.916Z,1009.82
2019-01-25T05:29:14.926Z,1009.85
2019-01-25T05:30:14.936Z,1009.84
2019-01-25T05:31:14.946Z,1009.85
2019-01-25T05:32:14.957Z,1009.83
2019-01-25T05:33:14.966Z,1009.83
2019-01-25T05:34:14.976Z,1009.86
2019-01-25T05:35:14.987Z,1009.8
2019-01-25T05:36:14.996Z,1009.83
2019-01-25T05:37:15.018Z,1009.82
2019-01-25T05:38:15.017Z,1009.84
2019-01-25T05:39:15.026Z,1009.84
2019-01-25T05:41:15.046Z,1009.79
2019-01-25T05:42:15.058Z,1009.77
2019-01-25T05:43:15.067Z,1009.8
2019-01-25T05:44:15.077Z,1009.83
2019-01-25T05:45:15.137Z,1009.81
2019-01-25T05:46:15.103Z,1009.81
2019-01-25T05:47:15.107Z,1009.81
2019-01-25T05:48:15.117Z,1009.8
2019-01-25T05:49:15.128Z,1009.8
2019-01-25T05:50:15.137Z,1009.82
2019-01-25T05:51:15.148Z,1009.82
2019-01-25T05:52:15.157Z,1009.82
2019-01-25T05:53:15.181Z,1009.78
2019-01-25T05:54:15.177Z,1009.77
2019-01-25T05:55:15.187Z,1009.75
2019-01-25T05:57:15.208Z,1009.75
2019-01-25T05:58:15.217Z,1009.75
2019-01-25T05:59:15.232Z,1009.72
2019-01-25T06:00:15.238Z,1009.73
2019-01-25T06:01:15.248Z,1009.71
2019-01-25T06:02:15.258Z,1009.69
2019-01-25T06:03:15.270Z,1009.75
2019-01-25T06:04:15.281Z,1009.76
2019-01-25T06:05:15.288Z,1009.73
2019-01-25T06:06:15.298Z,1009.74
2019-01-25T06:07:15.308Z,1009.76
2019-01-25T06:08:15.319Z,1009.75
2019-01-25T06:09:15.329Z,1009.71
2019-01-25T06:10:15.339Z,1009.69
2019-01-25T06:11:15.349Z,1009.71
2019-01-25T06:13:15.369Z,1009.74
2019-01-25T06:14:15.379Z,1009.74
2019-01-25T06:15:15.389Z,1009.78
2019-01-25T06:16:15.403Z,1009.79
2019-01-25T06:17:15.409Z,1009.78
2019-01-25T06:18:15.419Z,1009.81
2019-01-25T06:19:15.430Z,1009.78
2019-01-25T06:20:15.440Z,1009.8
2019-01-25T06:21:15.450Z,1009.79
2019-01-25T06:22:15.460Z,1009.75
2019-01-25T06:23:15.469Z,1009.78
2019-01-25T06:24:15.479Z,1009.77
2019-01-25T06:25:15.491Z,1009.79
2019-01-25T06:26:15.503Z,1009.82
2019-01-25T06:27:15.509Z,1009.81
2019-01-25T06:29:15.552Z,1009.85
2019-01-25T06:30:16.813Z,1009.86
2019-01-25T06:31:15.550Z,1009.9
2019-01-25T06:32:15.560Z,1009.85
2019-01-25T06:33:15.571Z,1009.85
2019-01-25T06:34:15.580Z,1009.87
2019-01-25T06:35:15.590Z,1009.87
2019-01-25T06:36:15.601Z,1009.85
2019-01-25T06:37:15.611Z,1009.84
2019-01-25T06:38:15.620Z,1009.85
2019-01-25T06:39:15.634Z,1009.84
2019-01-25T06:40:15.641Z,1009.87
2019-01-25T06:41:15.655Z,1009.89
2019-01-25T06:42:15.663Z,1009.92
2019-01-25T06:44:15.732Z,1009.92
2019-01-25T06:45:15.741Z,1009.93
2019-01-25T06:46:15.702Z,1009.97
2019-01-25T06:47:15.712Z,1009.94
2019-01-25T06:48:15.722Z,1009.96
2019-01-25T06:49:15.731Z,1009.95
2019-01-25T06:50:15.742Z,1009.96
2019-01-25T06:51:15.753Z,1009.99
2019-01-25T06:52:15.762Z,1009.98
2019-01-25T06:53:15.772Z,1010.01
2019-01-25T06:54:15.782Z,1010.02
2019-01-25T06:55:15.792Z,1010.01
2019-01-25T06:56:15.802Z,1010.03
2019-01-25T06:57:15.812Z,1010.01
2019-01-25T06:58:15.826Z,1010.02
2019-01-25T06:59:15.833Z,1010.06
2019-01-25T07:00:15.842Z,1010.02
2019-01-25T07:01:15.854Z,1010.03
2019-01-25T07:02:15.862Z,1010.08
2019-01-25T07:03:15.871Z,1010.05
2019-01-25T07:04:15.882Z,1010.07
2019-01-25T07:05:15.892Z,1010.08
2019-01-25T07:06:15.903Z,1010.12
2019-01-25T07:07:15.912Z,1010.11
2019-01-25T07:08:15.923Z,1010.11
2019-01-25T07:09:15.934Z,1010.15
2019-01-25T07:10:15.944Z,1010.13
2019-01-25T07:11:15.952Z,1010.16
2019-01-25T07:12:15.963Z,1010.15
2019-01-25T07:13:15.974Z,1010.16
2019-01-25T07:14:15.983Z,1010.21
2019-01-25T07:16:16.009Z,1010.24
2019-01-25T07:17:16.013Z,1010.27
2019-01-25T07:18:16.027Z,1010.21
2019-01-25T07:19:16.033Z,1010.24
2019-01-25T07:20:16.043Z,1010.24
2019-01-25T07:21:16.065Z,1010.23
2019-01-25T07:22:16.064Z,1010.24
2019-01-25T07:23:16.123Z,1010.24
2019-01-25T07:24:16.083Z,1010.25
2019-01-25T07:25:16.092Z,1010.27
2019-01-25T07:26:16.103Z,1010.26
2019-01-25T07:27:16.113Z,1010.26
2019-01-25T07:28:16.123Z,1010.26
2019-01-25T07:29:16.133Z,1010.26
2019-01-25T07:30:16.203Z,1010.26
2019-01-25T07:32:16.163Z,1010.26
2019-01-25T07:33:16.202Z,1010.29
2019-01-25T07:34:16.191Z,1010.29
2019-01-25T07:35:16.193Z,1010.24
2019-01-25T07:36:16.252Z,1010.21
2019-01-25T07:37:16.213Z,1010.22
2019-01-25T07:38:16.238Z,1010.22
2019-01-25T07:39:16.237Z,1010.24
2019-01-25T07:40:16.242Z,1010.26
2019-01-25T07:41:16.258Z,1010.22
2019-01-25T07:42:16.277Z,1010.24
2019-01-25T07:43:16.336Z,1010.25
2019-01-25T07:44:16.283Z,1010.2
2019-01-25T07:45:16.316Z,1010.19
2019-01-25T07:46:16.303Z,1010.21
2019-01-25T07:48:16.321Z,1010.19
2019-01-25T07:49:16.340Z,1010.21
2019-01-25T07:50:16.346Z,1010.18
2019-01-25T07:51:16.351Z,1010.2
2019-01-25T07:52:16.363Z,1010.18
2019-01-25T07:53:16.392Z,1010.2
2019-01-25T07:54:16.382Z,1010.19
2019-01-25T07:55:16.414Z,1010.22
2019-01-25T07:56:16.414Z,1010.17
2019-01-25T07:57:16.422Z,1010.19
2019-01-25T07:58:16.421Z,1010.18
2019-01-25T07:59:16.441Z,1010.21
2019-01-25T08:00:16.441Z,1010.18
2019-01-25T08:01:16.451Z,1010.25
2019-01-25T08:02:16.460Z,1010.25
2019-01-25T08:04:16.481Z,1010.25
2019-01-25T08:05:16.491Z,1010.23
2019-01-25T08:06:16.554Z,1010.26
2019-01-25T08:07:16.511Z,1010.24
2019-01-25T08:08:16.521Z,1010.25
2019-01-25T08:09:16.570Z,1010.22
2019-01-25T08:10:16.545Z,1010.19
2019-01-25T08:11:16.565Z,1010.24
2019-01-25T08:12:16.585Z,1010.23
2019-01-25T08:13:16.613Z,1010.17
2019-01-25T08:14:16.580Z,1010.21
2019-01-25T08:15:16.608Z,1010.2
2019-01-25T08:16:16.601Z,1010.22
2019-01-25T08:17:16.647Z,1010.25
2019-01-25T08:19:16.651Z,1010.26
2019-01-25T08:20:16.702Z,1010.23
2019-01-25T08:21:16.754Z,1010.24
2019-01-25T08:22:16.662Z,1010.23
2019-01-25T08:23:16.672Z,1010.26
2019-01-25T08:24:16.690Z,1010.25
2019-01-25T08:25:16.720Z,1010.23
2019-01-25T08:26:16.702Z,1010.24
2019-01-25T08:27:16.722Z,1010.24
2019-01-25T08:28:16.770Z,1010.25
2019-01-25T08:29:16.737Z,1010.26
2019-01-25T08:30:16.773Z,1010.26
2019-01-25T08:31:16.751Z,1010.26
2019-01-25T08:32:16.761Z,1010.27
2019-01-25T08:33:16.824Z,1010.24
2019-01-25T08:34:16.782Z,1010.19
2019-01-25T08:35:16.791Z,1010.24
2019-01-25T08:36:16.801Z,1010.22
2019-01-25T08:37:16.813Z,1010.25
2019-01-25T08:38:16.845Z,1010.26
2019-01-25T08:39:16.863Z,1010.26
2019-01-25T08:40:16.844Z,1010.26
2019-01-25T08:41:16.862Z,1010.28
2019-01-25T08:42:16.865Z,1010.28
2019-01-25T08:43:16.871Z,1010.29
2019-01-25T08:44:16.881Z,1010.27
2019-01-25T08:45:17.005Z,1010.33
2019-01-25T08:46:16.900Z,1010.29
2019-01-25T08:47:16.924Z,1010.31
2019-01-25T08:48:16.921Z,1010.29
2019-01-25T08:49:16.930Z,1010.31
2019-01-25T08:51:16.982Z,1010.31
2019-01-25T08:52:17.003Z,1010.32
2019-01-25T08:53:16.970Z,1010.34
2019-01-25T08:54:16.998Z,1010.3
2019-01-25T08:55:17.082Z,1010.32
2019-01-25T08:56:17.002Z,1010.3
2019-01-25T08:57:17.010Z,1010.35
2019-01-25T08:58:17.025Z,1010.3
2019-01-25T08:59:17.031Z,1010.32
2019-01-25T09:00:17.040Z,1010.33
2019-01-25T09:01:17.050Z,1010.35
2019-01-25T09:02:17.061Z,1010.34
2019-01-25T09:03:17.071Z,1010.34
2019-01-25T09:04:17.080Z,1010.33
2019-01-25T09:05:17.094Z,1010.37
2019-01-25T09:07:17.111Z,1010.39
2019-01-25T09:08:17.120Z,1010.4
2019-01-25T09:09:17.131Z,1010.39
2019-01-25T09:10:17.142Z,1010.39
2019-01-25T09:11:17.151Z,1010.39
2019-01-25T09:12:23.191Z,1010.42
2019-01-25T09:13:17.171Z,1010.41
2019-01-25T09:14:17.182Z,1010.4
2019-01-25T09:15:17.192Z,1010.41
2019-01-25T09:16:17.202Z,1010.42
2019-01-25T09:17:17.213Z,1010.44
2019-01-25T09:18:17.222Z,1010.35
2019-01-25T09:19:17.233Z,1010.38
2019-01-25T09:20:17.243Z,1010.38
2019-01-25T09:21:17.253Z,1010.4
2019-01-25T09:23:17.274Z,1010.45
2019-01-25T09:24:17.283Z,1010.42
2019-01-25T09:25:17.295Z,1010.42
2019-01-25T09:26:17.303Z,1010.42
2019-01-25T09:27:17.314Z,1010.4
2019-01-25T09:28:17.324Z,1010.45
2019-01-25T09:29:17.334Z,1010.45
2019-01-25T09:30:17.344Z,1010.44
2019-01-25T09:31:17.354Z,1010.45
2019-01-25T09:32:17.364Z,1010.46
2019-01-25T09:33:17.375Z,1010.48
2019-01-25T09:34:17.387Z,1010.5
2019-01-25T09:35:17.396Z,1010.54
2019-01-25T09:36:17.409Z,1010.53
2019-01-25T09:37:17.415Z,1010.56
2019-01-25T09:39:17.437Z,1010.53
2019-01-25T09:40:17.450Z,1010.55
2019-01-25T09:41:17.456Z,1010.52
2019-01-25T09:42:17.467Z,1010.56
2019-01-25T09:43:17.477Z,1010.54
2019-01-25T09:44:17.490Z,1010.54
2019-01-25T09:45:17.498Z,1010.55
2019-01-25T09:46:17.508Z,1010.52
2019-01-25T09:47:17.519Z,1010.55
2019-01-25T09:48:17.530Z,1010.54
2019-01-25T09:49:17.538Z,1010.48
2019-01-25T09:50:17.549Z,1010.47
2019-01-25T09:51:17.561Z,1010.48
2019-01-25T09:52:17.570Z,1010.48
2019-01-25T09:54:17.592Z,1010.52
2019-01-25T09:55:17.700Z,1010.5
2019-01-25T09:56:17.611Z,1010.51
2019-01-25T09:57:17.622Z,1010.52
2019-01-25T09:58:17.633Z,1010.53
2019-01-25T09:59:17.643Z,1010.54
2019-01-25T10:00:17.653Z,1010.47
2019-01-25T10:01:17.664Z,1010.47
2019-01-25T10:02:17.674Z,1010.49
2019-01-25T10:03:17.684Z,1010.47
2019-01-25T10:04:17.695Z,1010.46
2019-01-25T10:05:17.706Z,1010.51
2019-01-25T10:06:17.722Z,1010.46
2019-01-25T10:07:17.727Z,1010.47
2019-01-25T10:08:17.737Z,1010.43
2019-01-25T10:09:17.747Z,1010.44
2019-01-25T10:10:17.760Z,1010.38
2019-01-25T10:11:17.769Z,1010.36
2019-01-25T10:12:17.779Z,1010.35
2019-01-25T10:13:17.789Z,1010.32
2019-01-25T10:14:17.800Z,1010.31
2019-01-25T10:15:17.811Z,1010.27
2019-01-25T10:16:17.824Z,1010.25
2019-01-25T10:17:17.830Z,1010.24
2019-01-25T10:18:17.841Z,1010.24
2019-01-25T10:19:17.852Z,1010.21
2019-01-25T10:20:17.866Z,1010.23
2019-01-25T10:21:17.874Z,1010.23
2019-01-25T10:22:17.883Z,1010.19
2019-01-25T10:23:17.893Z,1010.18
2019-01-25T10:24:17.903Z,1010.22
2019-01-25T10:26:17.927Z,1010.16
2019-01-25T10:27:17.939Z,1010.18
2019-01-25T10:28:17.946Z,1010.11
2019-01-25T10:29:17.956Z,1010.15
2019-01-25T10:30:17.967Z,1010.12
2019-01-25T10:31:18.082Z,1010.11
2019-01-25T10:32:17.988Z,1010.13
2019-01-25T10:33:17.998Z,1010.09
2019-01-25T10:34:18.009Z,1010.12
2019-01-25T10:35:18.018Z,1010.09
2019-01-25T10:36:18.031Z,1010.07
2019-01-25T10:37:18.039Z,1010.11
2019-01-25T10:38:18.052Z,1010.12
2019-01-25T10:39:18.060Z,1010.07
2019-01-25T10:40:18.071Z,1010.04
2019-01-25T10:42:18.092Z,1010.05
2019-01-25T10:43:18.102Z,1010.06
2019-01-25T10:44:18.113Z,1010.07
2019-01-25T10:45:18.124Z,1010.1
2019-01-25T10:46:18.134Z,1010.09
2019-01-25T10:47:18.144Z,1010.11
2019-01-25T10:48:18.156Z,1010.14
2019-01-25T10:49:18.165Z,1010.1
2019-01-25T10:50:18.175Z,1010.1
2019-01-25T10:51:18.186Z,1010.12
2019-01-25T10:52:18.196Z,1010.11
2019-01-25T10:53:18.207Z,1010.12
2019-01-25T10:54:18.217Z,1010.12
2019-01-25T10:55:18.228Z,1010.12
2019-01-25T10:56:18.239Z,1010.1
2019-01-25T10:58:18.259Z,1010.12
2019-01-25T10:59:18.272Z,1010.17
2019-01-25T11:00:18.280Z,1010.11
2019-01-25T11:01:18.290Z,1010.1
2019-01-25T11:02:18.301Z,1010.12
2019-01-25T11:03:18.313Z,1010.13
2019-01-25T11:04:18.323Z,1010.13
2019-01-25T11:05:18.332Z,1010.14
2019-01-25T11:06:18.344Z,1010.09
2019-01-25T11:07:18.354Z,1010.06
2019-01-25T11:08:18.366Z,1010.05
2019-01-25T11:09:18.375Z,1010.03
2019-01-25T11:10:18.386Z,1010.05
2019-01-25T11:11:18.399Z,1010.03
2019-01-25T11:12:18.406Z,1009.99
2019-01-25T11:14:18.429Z,1010.02
2019-01-25T11:15:18.440Z,1009.99
2019-01-25T11:16:18.454Z,1010.01
2019-01-25T11:17:18.461Z,1010
2019-01-25T11:18:18.472Z,1009.99
2019-01-25T11:19:18.482Z,1009.96
2019-01-25T11:20:18.493Z,1009.97
2019-01-25T11:21:18.504Z,1009.92
2019-01-25T11:22:18.515Z,1009.94
2019-01-25T11:23:18.525Z,1009.95
2019-01-25T11:24:18.536Z,1009.92
2019-01-25T11:25:18.548Z,1009.93
2019-01-25T11:26:18.559Z,1009.94
2019-01-25T11:27:18.570Z,1009.94
2019-01-25T11:29:18.645Z,1009.98
2019-01-25T11:30:18.604Z,1009.97
2019-01-25T11:31:18.614Z,1009.93
2019-01-25T11:32:18.626Z,1009.93
2019-01-25T11:33:18.639Z,1009.95
2019-01-25T11:34:18.657Z,1009.88
2019-01-25T11:35:18.658Z,1009.92
2019-01-25T11:36:18.669Z,1009.87
2019-01-25T11:37:18.680Z,1009.93
2019-01-25T11:38:18.693Z,1009.87
2019-01-25T11:39:18.702Z,1009.91
2019-01-25T11:40:18.715Z,1009.89
2019-01-25T11:41:18.724Z,1009.89
2019-01-25T11:42:18.735Z,1009.91
2019-01-25T11:43:18.746Z,1009.94
2019-01-25T11:44:18.758Z,1009.94
2019-01-25T11:45:18.769Z,1009.96
2019-01-25T11:46:18.779Z,1009.92
2019-01-25T11:47:18.792Z,1009.92
2019-01-25T11:48:18.802Z,1009.94
2019-01-25T11:49:18.813Z,1010.02
2019-01-25T11:50:18.826Z,1009.99
2019-01-25T11:51:19.870Z,1009.98
2019-01-25T11:52:18.846Z,1009.97
2019-01-25T11:53:18.859Z,1009.94
2019-01-25T11:54:18.870Z,1009.91
2019-01-25T11:55:18.883Z,1009.91
2019-01-25T11:56:18.891Z,1009.9
2019-01-25T11:57:18.903Z,1009.9
2019-01-25T11:58:18.915Z,1009.92
2019-01-25T11:59:18.927Z,1009.89
2019-01-25T12:01:18.950Z,1009.89
2019-01-25T12:02:20.928Z,1009.83
2019-01-25T12:03:18.971Z,1009.83
2019-01-25T12:04:18.985Z,1009.85
2019-01-25T12:05:18.994Z,1009.8
2019-01-25T12:06:19.061Z,1009.83
2019-01-25T12:07:19.017Z,1009.82
2019-01-25T12:08:19.029Z,1009.75
2019-01-25T12:09:19.040Z,1009.79
2019-01-25T12:10:19.051Z,1009.78
2019-01-25T12:11:19.063Z,1009.81
2019-01-25T12:12:19.420Z,1009.77
2019-01-25T12:13:19.086Z,1009.75
2019-01-25T12:14:19.101Z,1009.7
2019-01-25T12:15:19.109Z,1009.7
2019-01-25T12:17:19.133Z,1009.62
2019-01-25T12:18:19.175Z,1009.69
2019-01-25T12:19:19.156Z,1009.65
2019-01-25T12:20:19.167Z,1009.68
2019-01-25T12:21:20.634Z,1009.7
2019-01-25T12:22:19.191Z,1009.75
2019-01-25T12:23:19.202Z,1009.72
2019-01-25T12:24:19.214Z,1009.78
2019-01-25T12:25:19.225Z,1009.74
2019-01-25T12:26:19.237Z,1009.79
2019-01-25T12:27:19.249Z,1009.77
2019-01-25T12:28:19.261Z,1009.8
2019-01-25T12:29:19.317Z,1009.74
2019-01-25T12:30:19.283Z,1009.78
2019-01-25T12:31:19.298Z,1009.83
2019-01-25T12:33:19.318Z,1009.76
2019-01-25T12:34:19.330Z,1009.77
2019-01-25T12:35:19.341Z,1009.75
2019-01-25T12:36:19.352Z,1009.73
2019-01-25T12:37:19.364Z,1009.66
2019-01-25T12:38:19.375Z,1009.62
2019-01-25T12:39:19.387Z,1009.6
2019-01-25T12:40:19.398Z,1009.61
2019-01-25T12:41:19.410Z,1009.63
2019-01-25T12:42:19.423Z,1009.62
2019-01-25T12:43:23.831Z,1009.63
2019-01-25T12:44:19.444Z,1009.59
2019-01-25T12:45:19.456Z,1009.61
2019-01-25T12:46:19.468Z,1009.52
2019-01-25T12:47:19.478Z,1009.54